Time;durP1;ratioP1;P1;durP2;ratioP2;P2;SDS_P1;SDS_P2;PMS_P1;PMS_P2;Temp;Humidity;BMP_temperature;BMP_pressure;BME280_temperature;BME280_humidity;BME280_pressure;Samples;Min_cycle;Max_cycle;Signal;HPM_P1;HPM_P2
2022/11/02 00:00:43;;;;;;;12.05;5.55;;;;;;;6.99;100.00;99429.66;5051992;28;20363;-75
2022/11/02 00:03:08;;;;;;;9.80;4.75;;;;;;;6.93;100.00;99424.09;5067091;28;20028;-75
2022/11/02 00:05:34;;;;;;;12.05;5.70;;;;;;;6.90;100.00;99424.44;5068002;28;20554;-75
2022/11/02 00:07:59;;;;;;;12.32;5.30;;;;;;;6.93;100.00;99442.94;5062586;28;20043;-75
2022/11/02 00:10:24;;;;;;;12.77;5.30;;;;;;;6.82;100.00;99413.66;5076116;28;20093;-75
2022/11/02 00:12:51;;;;;;;11.20;4.75;;;;;;;6.85;100.00;99438.38;5073748;28;20488;-75
2022/11/02 00:15:16;;;;;;;8.43;4.50;;;;;;;6.84;100.00;99435.84;5068649;28;20020;-75
2022/11/02 00:17:46;;;;;;;9.90;4.70;;;;;;;6.82;100.00;99417.19;5048595;28;20131;-75
2022/11/02 00:20:14;;;;;;;12.90;4.72;;;;;;;6.98;100.00;99421.75;5043140;28;20478;-75
2022/11/02 00:22:41;;;;;;;11.43;5.03;;;;;;;6.94;100.00;99432.03;5054764;28;20024;-74
2022/11/02 00:25:11;;;;;;;13.85;4.90;;;;;;;6.84;100.00;99434.00;5068755;28;20020;-75
2022/11/02 00:27:36;;;;;;;10.43;4.45;;;;;;;6.85;100.00;99440.22;5070007;28;20512;-75
2022/11/02 00:30:01;;;;;;;11.95;4.57;;;;;;;6.70;100.00;99424.69;5068048;28;20032;-75
2022/11/02 00:32:27;;;;;;;15.80;5.57;;;;;;;6.59;100.00;99433.91;5067956;28;20044;-75
2022/11/02 00:34:52;;;;;;;14.63;4.63;;;;;;;6.33;100.00;99428.59;5066449;28;20470;-75
2022/11/02 00:37:18;;;;;;;10.13;4.57;;;;;;;6.27;100.00;99421.19;5062263;28;20040;-75
2022/11/02 00:39:43;;;;;;;9.85;4.63;;;;;;;6.18;100.00;99426.66;5059525;28;20305;-75
2022/11/02 00:42:08;;;;;;;10.80;4.72;;;;;;;6.20;100.00;99436.25;5060376;28;20111;-74
2022/11/02 00:44:33;;;;;;;8.88;4.45;;;;;;;6.09;100.00;99426.63;5071119;28;20039;-75
2022/11/02 00:46:59;;;;;;;8.13;4.22;;;;;;;6.08;100.00;99434.84;5073806;28;20028;-74
2022/11/02 00:49:24;;;;;;;9.77;4.72;;;;;;;6.08;100.00;99433.00;5065677;28;20024;-74
2022/11/02 00:51:49;;;;;;;10.38;4.85;;;;;;;6.03;100.00;99438.00;5060511;28;20090;-74
2022/11/02 00:54:15;;;;;;;9.93;4.93;;;;;;;6.07;100.00;99441.22;5061299;28;20088;-74
2022/11/02 00:56:40;;;;;;;8.27;4.35;;;;;;;5.96;100.00;99420.84;5067445;28;20016;-74
2022/11/02 00:59:05;;;;;;;5.78;3.78;;;;;;;6.06;100.00;99434.16;5061849;28;20028;-75
2022/11/02 01:01:30;;;;;;;7.18;3.78;;;;;;;6.19;100.00;99439.13;5071238;28;20021;-74
2022/11/02 01:03:56;;;;;;;7.93;4.00;;;;;;;6.04;100.00;99428.94;5076206;28;20020;-75
2022/11/02 01:06:21;;;;;;;6.65;3.88;;;;;;;6.17;100.00;99447.31;5075772;28;20032;-75
2022/11/02 01:08:47;;;;;;;6.30;3.33;;;;;;;6.02;100.00;99435.47;5064228;28;20032;-75
2022/11/02 01:11:14;;;;;;;5.22;3.28;;;;;;;6.07;100.00;99447.41;5051782;28;20020;-75
2022/11/02 01:13:39;;;;;;;5.40;3.28;;;;;;;5.96;100.00;99433.44;5070079;28;20029;-74
2022/11/02 01:16:05;;;;;;;4.78;3.33;;;;;;;6.08;100.00;99450.97;5072364;28;20478;-75
2022/11/02 01:18:31;;;;;;;4.65;3.17;;;;;;;6.02;100.00;99451.59;5072995;28;20032;-76
2022/11/02 01:20:57;;;;;;;7.68;3.25;;;;;;;6.05;100.00;99448.59;5054463;28;20470;-76
2022/11/02 01:23:23;;;;;;;7.35;3.72;;;;;;;5.96;100.00;99431.59;5080222;28;20031;-76
2022/11/02 01:25:48;;;;;;;9.80;4.40;;;;;;;6.11;100.00;99443.44;5055511;28;20426;-75
2022/11/02 01:28:14;;;;;;;8.50;3.90;;;;;;;6.08;100.00;99427.63;5070613;28;20020;-76
2022/11/02 01:30:39;;;;;;;6.50;4.05;;;;;;;6.14;100.00;99418.09;5072676;28;20077;-76
2022/11/02 01:33:05;;;;;;;6.57;4.18;;;;;;;6.45;100.00;99436.38;5068997;28;20115;-75
2022/11/02 01:35:30;;;;;;;7.80;3.85;;;;;;;6.47;100.00;99437.91;5070101;28;20060;-75
2022/11/02 01:37:56;;;;;;;5.55;3.60;;;;;;;6.34;100.00;99416.84;5076178;28;20470;-75
2022/11/02 01:40:21;;;;;;;6.00;3.28;;;;;;;6.32;100.00;99413.47;5065097;28;20463;-75
2022/11/02 01:42:46;;;;;;;5.20;2.85;;;;;;;6.44;100.00;99429.31;5070304;28;20055;-76
2022/11/02 01:45:12;;;;;;;4.57;3.08;;;;;;;6.48;100.00;99441.44;5053457;28;20025;-76
2022/11/02 01:47:42;;;;;;;7.32;3.33;;;;;;;6.38;100.00;99414.69;5069109;28;20082;-76
2022/11/02 01:50:12;;;;;;;6.60;3.10;;;;;;;6.46;100.00;99424.63;5050213;28;20044;-76
2022/11/02 01:52:38;;;;;;;7.95;3.55;;;;;;;6.62;100.00;99430.06;5061013;28;20044;-76
2022/11/02 01:55:24;;;;;;;6.30;3.50;;;;;;;6.80;100.00;99413.81;5057994;28;20031;-76
2022/11/02 01:57:59;;;;;;;11.52;3.33;;;;;;;7.05;100.00;99427.31;5050212;28;20031;-76
2022/11/02 02:00:24;;;;;;;10.00;3.20;;;;;;;7.20;100.00;99428.34;5049780;28;20013;-76
2022/11/02 02:03:11;;;;;;;7.07;2.70;;;;;;;7.28;100.00;99411.38;5066059;28;20107;-76
2022/11/02 02:05:45;;;;;;;7.78;3.33;;;;;;;7.23;100.00;99401.09;5057758;28;20076;-76
2022/11/02 02:08:14;;;;;;;8.80;3.08;;;;;;;7.27;100.00;99407.00;5071651;28;20154;-76
2022/11/02 02:10:39;;;;;;;6.78;3.47;;;;;;;7.16;100.00;99394.72;5066593;28;20020;-76
2022/11/02 02:13:06;;;;;;;7.82;3.10;;;;;;;7.09;100.00;99402.59;5070391;28;20036;-76
2022/11/02 02:16:10;;;;;;;8.15;2.88;;;;;;;7.03;100.00;99385.28;5073859;28;20024;-76
2022/11/02 02:18:49;;;;;;;11.23;3.10;;;;;;;7.09;100.00;99391.84;5028806;28;20040;-76
2022/11/02 02:21:31;;;;;;;6.60;2.88;;;;;;;7.24;100.00;99384.78;5062703;28;20024;-76
2022/11/02 02:24:25;;;;;;;11.52;3.20;;;;;;;7.43;100.00;99405.13;5052297;28;20028;-76
2022/11/02 02:26:54;;;;;;;7.20;2.58;;;;;;;7.39;100.00;99400.28;5069518;28;20059;-76
2022/11/02 02:32:52;;;;;;;5.28;2.90;;;;;;;7.08;100.00;99381.25;5089330;22;20053;-62
2022/11/02 02:35:36;;;;;;;7.32;2.63;;;;;;;7.05;100.00;99384.25;5015547;28;20040;-63
2022/11/02 02:38:06;;;;;;;5.22;2.58;;;;;;;7.09;100.00;99374.84;5046070;28;20021;-62
2022/11/02 02:40:37;;;;;;;4.28;2.25;;;;;;;7.13;100.00;99381.59;5030593;28;20017;-62
2022/11/02 02:43:09;;;;;;;9.10;3.00;;;;;;;7.11;100.00;99381.75;5029838;28;20061;-63
2022/11/02 02:45:49;;;;;;;3.47;2.10;;;;;;;7.11;100.00;99384.44;5030072;28;20017;-62
2022/11/02 02:48:20;;;;;;;8.93;3.05;;;;;;;7.10;100.00;99381.91;5038657;28;20095;-63
2022/11/02 02:51:00;;;;;;;3.53;2.45;;;;;;;7.09;100.00;99381.06;5037216;28;20025;-63
2022/11/02 02:53:34;;;;;;;9.98;2.63;;;;;;;7.12;100.00;99383.44;5028599;28;20079;-62
2022/11/02 02:56:03;;;;;;;8.50;2.30;;;;;;;7.19;100.00;99379.06;5032273;28;20028;-63
2022/11/02 02:58:35;;;;;;;6.13;2.47;;;;;;;7.33;100.00;99371.31;5035011;28;20092;-63
2022/11/02 03:01:05;;;;;;;6.28;2.90;;;;;;;7.32;100.00;99364.28;5029157;28;20028;-62
2022/11/02 03:03:33;;;;;;;4.22;2.35;;;;;;;7.46;100.00;99368.97;5044374;28;20028;-63
2022/11/02 03:06:05;;;;;;;12.82;2.97;;;;;;;7.60;100.00;99365.59;5044801;28;20045;-63
2022/11/02 03:08:31;;;;;;;8.98;2.47;;;;;;;7.68;100.00;99370.13;5033847;28;20020;-63
2022/11/02 03:11:03;;;;;;;6.22;2.72;;;;;;;7.79;100.00;99371.63;5028244;28;20026;-63
2022/11/02 03:13:41;;;;;;;7.57;2.75;;;;;;;7.80;100.00;99373.31;5023290;28;20108;-62
2022/11/02 03:16:17;;;;;;;8.48;2.80;;;;;;;7.71;100.00;99371.66;5037839;28;20120;-63
2022/11/02 03:18:57;;;;;;;3.67;2.15;;;;;;;7.62;100.00;99371.66;5028260;28;20383;-63
2022/11/02 03:21:42;;;;;;;5.85;2.40;;;;;;;7.58;100.00;99369.47;5033246;28;20029;-63
2022/11/02 03:24:18;;;;;;;7.55;2.75;;;;;;;7.58;100.00;99375.69;5035121;28;20526;-63
2022/11/02 03:26:55;;;;;;;8.43;2.15;;;;;;;7.79;100.00;99377.84;5027279;28;20430;-62
2022/11/02 03:29:27;;;;;;;9.27;2.30;;;;;;;7.84;100.00;99370.09;5060202;28;20081;-63
2022/11/02 03:32:02;;;;;;;5.47;2.00;;;;;;;7.93;100.00;99362.81;5026438;28;20036;-63
2022/11/02 03:34:37;;;;;;;9.02;2.42;;;;;;;7.95;100.00;99371.59;5034517;28;20170;-63
2022/11/02 03:37:27;;;;;;;7.20;1.95;;;;;;;7.95;100.00;99371.59;5032972;28;20021;-63
2022/11/02 03:40:02;;;;;;;6.15;2.30;;;;;;;8.05;100.00;99358.75;5050036;28;20024;-62
2022/11/02 03:42:32;;;;;;;4.53;2.30;;;;;;;8.15;100.00;99361.25;5025978;28;20035;-63
2022/11/02 03:45:05;;;;;;;5.82;1.65;;;;;;;8.21;100.00;99362.41;5032189;28;20087;-63
2022/11/02 03:47:34;;;;;;;5.65;2.10;;;;;;;8.26;100.00;99373.50;5030586;28;20031;-63
2022/11/02 03:50:01;;;;;;;2.67;1.80;;;;;;;8.24;100.00;99378.22;5033575;28;20021;-63
2022/11/02 03:52:29;;;;;;;7.57;2.10;;;;;;;8.11;100.00;99360.75;5032735;28;20283;-63
2022/11/02 03:55:17;;;;;;;5.07;2.13;;;;;;;8.17;100.00;99367.28;5039936;28;20068;-63
2022/11/02 03:57:47;;;;;;;10.32;2.33;;;;;;;8.08;100.00;99373.75;5045418;28;20126;-63
2022/11/02 04:00:18;;;;;;;5.30;2.03;;;;;;;8.09;100.00;99376.25;5034909;28;20157;-63
2022/11/02 04:02:48;;;;;;;5.43;1.98;;;;;;;8.12;100.00;99378.63;5032952;28;20024;-63
2022/11/02 04:05:14;;;;;;;6.88;2.22;;;;;;;8.03;100.00;99386.88;5037457;28;20024;-63
2022/11/02 04:10:27;;;;;;;6.32;2.30;;;;;;;7.60;100.00;99392.53;5041664;28;20032;-63
2022/11/02 04:15:36;;;;;;;5.30;1.55;;;;;;;7.97;100.00;99380.34;5046879;28;20484;-62
2022/11/02 04:20:50;;;;;;;5.72;1.73;;;;;;;8.22;100.00;99381.09;5043836;28;20416;-63
2022/11/02 04:25:59;;;;;;;4.10;1.80;;;;;;;8.14;100.00;99394.59;5054898;28;20408;-62
2022/11/02 04:28:24;;;;;;;3.22;2.03;;;;;;;7.96;100.00;99389.41;5050366;28;20024;-63
2022/11/02 04:30:50;;;;;;;5.90;2.38;;;;;;;7.72;100.00;99390.31;5039040;28;20108;-62
2022/11/02 04:33:33;;;;;;;6.85;2.55;;;;;;;7.62;100.00;99405.81;5039324;28;20123;-63
2022/11/02 04:36:04;;;;;;;8.00;2.17;;;;;;;7.58;100.00;99401.78;5042396;28;20063;-63
2022/11/02 04:38:39;;;;;;;7.60;2.17;;;;;;;7.72;100.00;99401.09;5049877;28;20028;-63
2022/11/02 04:43:54;;;;;;;5.07;2.40;;;;;;;7.95;100.00;99397.69;5050095;28;20036;-63
2022/11/02 04:46:27;;;;;;;8.88;2.67;;;;;;;8.03;100.00;99401.19;5027587;28;20033;-62
2022/11/02 04:49:13;;;;;;;7.80;2.08;;;;;;;8.04;100.00;99407.44;5031070;28;20087;-63
2022/11/02 04:51:41;;;;;;;6.07;2.05;;;;;;;7.81;100.00;99389.31;5060509;22;20082;-76
2022/11/02 04:54:06;;;;;;;4.65;2.13;;;;;;;7.71;100.00;99379.72;5094726;28;20048;-75
2022/11/02 04:56:32;;;;;;;5.05;2.20;;;;;;;7.52;100.00;99354.84;5093886;28;20089;-75
2022/11/02 04:58:58;;;;;;;4.38;1.95;;;;;;;7.64;100.00;99369.63;5085574;28;20054;-74
2022/11/02 05:01:27;;;;;;;7.50;2.38;;;;;;;7.78;100.00;99399.56;5079045;28;20028;-74
2022/11/02 05:03:53;;;;;;;4.07;1.92;;;;;;;7.69;100.00;99404.13;5087123;28;20024;-74
2022/11/02 05:06:20;;;;;;;5.22;1.50;;;;;;;7.55;100.00;99405.66;5085951;28;20024;-75
2022/11/02 05:08:46;;;;;;;11.07;2.20;;;;;;;7.39;100.00;99393.03;5090362;28;20028;-75
2022/11/02 05:11:12;;;;;;;4.15;1.90;;;;;;;7.20;100.00;99378.06;5060397;28;20030;-74
2022/11/02 05:13:39;;;;;;;5.28;1.80;;;;;;;7.17;100.00;99388.31;5085027;28;20107;-75
2022/11/02 05:16:06;;;;;;;7.15;1.65;;;;;;;7.21;100.00;99411.22;5064192;28;20020;-74
2022/11/02 05:18:32;;;;;;;4.82;1.90;;;;;;;7.25;100.00;99418.75;5069525;28;20024;-75
2022/11/02 05:20:59;;;;;;;5.15;2.00;;;;;;;7.19;100.00;99422.13;5077148;28;20045;-76
2022/11/02 05:23:25;;;;;;;5.90;1.90;;;;;;;7.20;100.00;99423.81;5080133;28;20067;-76
2022/11/02 05:25:55;;;;;;;6.22;2.25;;;;;;;7.25;100.00;99434.06;5079542;28;20029;-76
2022/11/02 05:28:21;;;;;;;4.57;2.50;;;;;;;7.09;100.00;99402.59;5074490;28;20244;-76
2022/11/02 05:30:46;;;;;;;7.95;4.47;;;;;;;7.41;100.00;99428.72;5086634;28;20046;-76
2022/11/02 05:33:12;;;;;;;8.70;3.67;;;;;;;7.47;100.00;99411.88;5086362;28;20047;-73
2022/11/02 05:35:37;;;;;;;5.53;2.92;;;;;;;7.66;100.00;99426.03;5097183;28;20023;-72
2022/11/02 05:38:02;;;;;;;7.07;2.15;;;;;;;7.62;100.00;99419.28;5097841;28;20088;-72
2022/11/02 05:40:27;;;;;;;6.10;2.90;;;;;;;7.63;100.00;99418.28;5097566;28;20034;-72
2022/11/02 05:43:00;;;;;;;5.47;1.95;;;;;;;7.76;100.00;99407.00;5083060;28;20307;-73
2022/11/02 05:45:26;;;;;;;12.45;2.60;;;;;;;7.99;100.00;99401.72;5096145;28;20024;-71
2022/11/02 05:47:51;;;;;;;6.05;2.08;;;;;;;8.19;100.00;99407.56;5093022;28;20053;-77
2022/11/02 05:50:17;;;;;;;9.40;1.70;;;;;;;8.27;100.00;99405.66;5092994;28;20048;-76
2022/11/02 05:52:42;;;;;;;9.77;1.90;;;;;;;8.43;100.00;99415.59;5084964;28;20058;-74
2022/11/02 05:55:08;;;;;;;5.00;1.98;;;;;;;8.43;100.00;99412.88;5096163;28;20092;-72
2022/11/02 05:57:33;;;;;;;5.53;1.67;;;;;;;8.35;100.00;99404.81;5083604;28;20035;-74
2022/11/02 05:59:58;;;;;;;4.57;2.10;;;;;;;8.23;100.00;99400.81;5090223;28;20062;-73
2022/11/02 06:02:24;;;;;;;7.30;1.95;;;;;;;8.23;100.00;99425.91;5068290;28;20401;-73
2022/11/02 06:04:49;;;;;;;5.55;2.17;;;;;;;8.18;100.00;99414.81;5082674;28;20050;-73
2022/11/02 06:07:14;;;;;;;7.53;1.80;;;;;;;8.32;100.00;99424.03;5085440;28;20569;-72
2022/11/02 06:09:40;;;;;;;5.25;2.03;;;;;;;8.31;100.00;99417.81;5085780;28;20031;-73
2022/11/02 06:12:05;;;;;;;3.75;1.73;;;;;;;8.36;100.00;99420.00;5074636;28;20476;-73
2022/11/02 06:14:31;;;;;;;3.08;1.60;;;;;;;8.48;100.00;99440.19;5090630;28;20032;-76
2022/11/02 06:16:56;;;;;;;6.88;2.60;;;;;;;8.28;100.00;99417.31;5092414;28;20031;-75
2022/11/02 06:19:21;;;;;;;9.95;2.00;;;;;;;8.37;100.00;99432.44;5089879;28;20035;-74
2022/11/02 06:21:47;;;;;;;5.45;1.70;;;;;;;8.51;100.00;99452.47;5070092;28;20431;-73
2022/11/02 06:24:12;;;;;;;3.42;1.80;;;;;;;8.62;100.00;99459.34;5093302;28;20045;-75
2022/11/02 06:26:37;;;;;;;7.18;2.28;;;;;;;8.74;100.00;99479.53;5090587;28;20042;-71
2022/11/02 06:29:03;;;;;;;8.52;2.10;;;;;;;8.69;100.00;99457.63;5088116;28;20054;-71
2022/11/02 06:31:28;;;;;;;4.93;1.80;;;;;;;8.80;100.00;99486.09;5074637;28;20106;-72
2022/11/02 06:33:53;;;;;;;5.03;1.55;;;;;;;8.70;100.00;99483.63;5091225;28;20024;-75
2022/11/02 06:36:20;;;;;;;5.50;1.95;;;;;;;8.84;100.00;99482.88;5100013;28;20640;-79
2022/11/02 06:38:45;;;;;;;3.45;1.60;;;;;;;9.03;100.00;99486.16;5070343;28;20027;-75
2022/11/02 06:41:11;;;;;;;8.13;2.58;;;;;;;9.14;100.00;99475.81;5087086;28;20028;-79
2022/11/02 06:43:37;;;;;;;5.13;1.98;;;;;;;9.35;100.00;99475.16;5068280;28;20059;-79
2022/11/02 06:46:03;;;;;;;5.65;2.25;;;;;;;9.46;100.00;99495.53;5089339;28;20031;-71
2022/11/02 06:48:28;;;;;;;5.25;2.30;;;;;;;9.55;100.00;99496.28;5087130;28;20035;-73
2022/11/02 06:50:53;;;;;;;9.80;2.47;;;;;;;9.49;100.00;99478.94;5087396;28;20525;-73
2022/11/02 06:53:19;;;;;;;5.22;2.03;;;;;;;9.68;100.00;99495.69;5086996;28;20040;-74
2022/11/02 06:55:51;;;;;;;6.45;2.25;;;;;;;9.83;100.00;99508.25;5093426;28;20358;-73
2022/11/02 06:58:16;;;;;;;5.65;2.53;;;;;;;9.69;100.00;99500.06;5079138;28;20027;-75
2022/11/02 07:00:42;;;;;;;4.28;2.33;;;;;;;9.78;100.00;99507.94;5061800;28;20020;-73
2022/11/02 07:03:09;;;;;;;12.75;2.78;;;;;;;9.82;100.00;99503.00;5080282;28;20040;-75
2022/11/02 07:05:36;;;;;;;6.97;2.53;;;;;;;9.88;100.00;99497.72;5069899;28;20020;-80
2022/11/02 07:08:02;;;;;;;7.63;2.05;;;;;;;9.81;100.00;99512.97;5075511;28;20091;-77
2022/11/02 07:10:28;;;;;;;5.32;2.22;;;;;;;9.90;100.00;99532.66;5088326;28;20027;-78
2022/11/02 07:12:55;;;;;;;8.63;2.50;;;;;;;9.85;100.00;99548.59;5093625;28;20396;-79
2022/11/02 07:15:22;;;;;;;6.78;2.53;;;;;;;9.82;100.00;99549.81;5077534;28;20123;-78
2022/11/02 07:17:47;;;;;;;6.38;2.45;;;;;;;9.91;100.00;99541.63;5072543;28;20034;-77
2022/11/02 07:20:13;;;;;;;7.45;2.13;;;;;;;9.81;100.00;99533.75;5072425;28;20020;-74
2022/11/02 07:22:39;;;;;;;9.70;2.47;;;;;;;9.79;100.00;99536.63;5093679;28;20051;-74
2022/11/02 07:25:05;;;;;;;7.00;2.35;;;;;;;10.02;100.00;99539.34;5058010;28;20736;-74
2022/11/02 07:27:31;;;;;;;13.60;2.47;;;;;;;9.86;100.00;99507.88;5091162;28;20099;-77
2022/11/02 07:29:57;;;;;;;5.65;2.53;;;;;;;10.04;100.00;99531.06;5068507;28;20058;-78
2022/11/02 07:32:22;;;;;;;6.10;2.30;;;;;;;10.24;100.00;99553.88;5065193;28;20040;-78
2022/11/02 07:34:48;;;;;;;6.35;2.13;;;;;;;10.10;100.00;99528.44;5069318;28;20024;-79
2022/11/02 07:37:13;;;;;;;4.85;2.47;;;;;;;10.06;100.00;99545.22;5071206;28;20098;-74
2022/11/02 07:39:38;;;;;;;5.05;1.92;;;;;;;10.26;100.00;99554.50;5071555;28;20035;-74
2022/11/02 07:42:05;;;;;;;6.75;2.10;;;;;;;10.15;100.00;99527.06;5082162;28;20104;-73
2022/11/02 07:44:32;;;;;;;4.97;1.80;;;;;;;10.38;100.00;99551.41;5088552;28;20557;-76
2022/11/02 07:46:57;;;;;;;10.50;2.15;;;;;;;10.41;100.00;99548.31;5059113;28;20056;-76
2022/11/02 07:49:22;;;;;;;12.80;2.10;;;;;;;10.39;100.00;99531.44;5084848;28;20048;-80
2022/11/02 07:51:48;;;;;;;3.08;1.52;;;;;;;10.63;100.00;99542.00;5059793;28;20031;-79
2022/11/02 07:54:13;;;;;;;3.88;1.30;;;;;;;10.89;100.00;99554.22;5087729;22;20529;-63
2022/11/02 07:56:38;;;;;;;6.95;1.35;;;;;;;11.12;100.00;99554.13;5063129;28;20035;-63
2022/11/02 07:59:04;;;;;;;7.53;2.33;;;;;;;11.35;100.00;99559.44;5068068;28;20039;-62
2022/11/02 08:01:30;;;;;;;10.30;1.90;;;;;;;11.73;100.00;99551.09;5069496;28;20069;-63
2022/11/02 08:03:55;;;;;;;6.47;1.48;;;;;;;12.03;100.00;99551.84;5071861;28;20395;-63
2022/11/02 08:06:21;;;;;;;5.57;1.75;;;;;;;12.13;100.00;99551.50;5070053;28;20028;-63
2022/11/02 08:08:46;;;;;;;5.40;2.10;;;;;;;12.47;100.00;99548.03;5069501;28;20082;-63
2022/11/02 08:11:12;;;;;;;9.13;1.77;;;;;;;12.81;100.00;99546.38;5067745;28;20058;-62
2022/11/02 08:13:37;;;;;;;7.93;2.30;;;;;;;13.50;100.00;99549.06;5075451;28;20027;-62
2022/11/02 08:16:03;;;;;;;5.72;2.40;;;;;;;13.93;100.00;99550.63;5070457;28;20032;-63
2022/11/02 08:18:29;;;;;;;12.90;2.00;;;;;;;14.68;100.00;99543.13;5066658;28;20498;-63
2022/11/02 08:20:56;;;;;;;4.78;1.20;;;;;;;15.30;100.00;99544.41;5058230;28;20115;-62
2022/11/02 08:23:22;;;;;;;6.25;1.30;;;;;;;14.94;100.00;99550.41;5065314;28;20424;-64
2022/11/02 08:25:50;;;;;;;5.90;1.58;;;;;;;14.83;100.00;99546.44;5071935;28;20076;-64
2022/11/02 08:28:22;;;;;;;6.47;1.60;;;;;;;14.61;100.00;99539.56;5057516;28;20024;-63
2022/11/02 08:30:47;;;;;;;13.05;1.40;;;;;;;14.27;100.00;99549.59;5078430;22;20053;-74
2022/11/02 08:33:14;;;;;;;5.28;1.60;;;;;;;14.35;100.00;99556.72;5042940;28;20083;-74
2022/11/02 08:35:41;;;;;;;5.18;1.55;;;;;;;14.40;100.00;99559.66;5035944;28;20041;-74
2022/11/02 08:38:08;;;;;;;6.97;1.92;;;;;;;14.47;100.00;99557.78;5047534;28;20017;-74
2022/11/02 08:40:34;;;;;;;7.13;2.33;;;;;;;14.42;100.00;99561.13;5044922;28;20108;-73
2022/11/02 08:43:08;;;;;;;11.32;2.45;;;;;;;14.35;100.00;99551.28;5040661;28;20029;-73
2022/11/02 08:45:35;;;;;;;15.38;1.83;;;;;;;14.44;100.00;99555.47;5041367;28;20461;-70
2022/11/02 08:48:00;;;;;;;11.18;2.20;;;;;;;14.12;100.00;99563.44;5046411;28;20037;-69
2022/11/02 08:50:26;;;;;;;5.68;1.58;;;;;;;14.49;100.00;99550.25;5045556;28;20933;-75
2022/11/02 08:52:51;;;;;;;7.28;1.77;;;;;;;14.51;100.00;99539.13;5044076;28;20040;-74
2022/11/02 08:55:17;;;;;;;15.80;2.20;;;;;;;14.50;100.00;99549.19;5045203;28;20190;-73
2022/11/02 08:57:44;;;;;;;5.22;1.83;;;;;;;14.44;100.00;99544.59;5036282;28;20037;-72
2022/11/02 09:00:10;;;;;;;8.55;1.63;;;;;;;14.21;100.00;99556.72;5043931;28;20021;-74
2022/11/02 09:02:35;;;;;;;5.18;1.60;;;;;;;13.93;100.00;99543.28;5049191;28;20026;-76
2022/11/02 09:05:00;;;;;;;4.90;1.58;;;;;;;14.22;100.00;99541.22;5042063;28;20028;-75
2022/11/02 09:07:25;;;;;;;5.80;1.95;;;;;;;14.26;100.00;99561.53;5044095;28;20049;-73
2022/11/02 09:09:51;;;;;;;4.40;1.10;;;;;;;14.33;100.00;99566.97;5045209;28;20025;-76
2022/11/02 09:12:16;;;;;;;8.27;1.75;;;;;;;14.30;100.00;99551.91;5053115;28;20445;-75
2022/11/02 09:14:41;;;;;;;9.18;1.60;;;;;;;14.44;100.00;99537.25;5052531;28;20028;-74
2022/11/02 09:17:07;;;;;;;10.30;1.50;;;;;;;14.53;100.00;99562.41;5051095;28;20108;-75
2022/11/02 09:19:32;;;;;;;7.95;1.15;;;;;;;14.04;100.00;99544.56;5048461;28;20052;-76
2022/11/02 09:21:57;;;;;;;5.03;1.20;;;;;;;14.62;100.00;99561.16;5053819;28;20025;-73
2022/11/02 09:24:22;;;;;;;6.13;1.25;;;;;;;14.79;100.00;99557.97;5048558;28;20056;-70
2022/11/02 09:26:48;;;;;;;7.57;1.23;;;;;;;14.00;100.00;99535.16;5051339;28;20394;-72
2022/11/02 09:29:13;;;;;;;8.65;1.50;;;;;;;14.28;100.00;99564.91;5053596;28;20032;-72
2022/11/02 09:31:39;;;;;;;7.72;1.20;;;;;;;14.46;100.00;99569.69;5051466;28;20463;-71
2022/11/02 09:34:04;;;;;;;7.22;1.17;;;;;;;14.60;100.00;99567.84;5049985;28;20029;-71
2022/11/02 09:36:29;;;;;;;6.15;1.30;;;;;;;14.37;100.00;99574.53;5049920;28;20501;-72
2022/11/02 09:38:54;;;;;;;8.65;1.52;;;;;;;14.40;100.00;99578.72;5052488;28;20086;-72
2022/11/02 09:41:28;;;;;;;7.47;1.10;;;;;;;14.59;100.00;99567.03;5053299;28;20021;-70
2022/11/02 09:44:03;;;;;;;5.90;0.93;;;;;;;14.60;100.00;99576.84;5046556;28;20078;-70
2022/11/02 09:46:38;;;;;;;5.78;1.02;;;;;;;14.71;100.00;99580.00;5049526;28;20033;-70
2022/11/02 09:49:17;;;;;;;6.90;1.30;;;;;;;14.19;100.00;99571.56;5045856;28;20025;-72
2022/11/02 09:51:48;;;;;;;7.53;1.33;;;;;;;14.74;100.00;99585.00;5049104;28;20414;-71
2022/11/02 09:54:18;;;;;;;6.78;1.10;;;;;;;14.32;100.00;99589.81;5053073;28;20091;-70
2022/11/02 09:56:45;;;;;;;4.82;1.05;;;;;;;14.69;100.00;99585.63;5044304;28;20062;-72
2022/11/02 09:59:14;;;;;;;7.82;1.30;;;;;;;14.84;100.00;99590.88;5049917;28;20083;-71
2022/11/02 10:01:50;;;;;;;13.10;1.90;;;;;;;14.34;100.00;99583.09;5050847;28;20021;-71
2022/11/02 10:04:15;;;;;;;12.18;2.10;;;;;;;14.65;100.00;99576.22;5053359;28;20036;-71
2022/11/02 10:06:47;;;;;;;6.75;1.35;;;;;;;14.78;100.00;99568.03;5053596;28;20036;-71
2022/11/02 10:09:26;;;;;;;8.40;1.30;;;;;;;14.55;100.00;99576.66;5061170;28;20051;-71
2022/11/02 10:12:12;;;;;;;7.10;1.15;;;;;;;14.46;100.00;99573.28;5067953;28;20021;-70
2022/11/02 10:14:45;;;;;;;9.45;1.63;;;;;;;14.44;100.00;99558.19;5063244;28;20036;-71
2022/11/02 10:17:16;;;;;;;9.15;1.25;;;;;;;14.79;100.00;99588.78;5066284;28;20041;-70
2022/11/02 10:19:47;;;;;;;9.52;2.47;;;;;;;14.71;100.00;99577.28;5072714;28;20029;-74
2022/11/02 10:22:14;;;;;;;10.13;1.15;;;;;;;14.69;100.00;99572.03;5061079;28;20082;-74
2022/11/02 10:24:44;;;;;;;7.45;1.20;;;;;;;14.81;100.00;99585.84;5057308;28;20020;-76
2022/11/02 10:27:25;;;;;;;7.00;1.42;;;;;;;14.56;100.00;99578.31;5061350;28;20021;-72
2022/11/02 10:30:00;;;;;;;9.15;1.70;;;;;;;14.85;100.00;99595.25;5069336;28;20021;-72
2022/11/02 10:32:25;;;;;;;7.97;1.35;;;;;;;14.98;100.00;99578.06;5070819;28;20048;-74
2022/11/02 10:34:52;;;;;;;11.88;1.50;;;;;;;15.09;100.00;99596.47;5071836;28;20029;-73
2022/11/02 10:37:34;;;;;;;12.45;2.92;;;;;;;15.22;100.00;99595.59;5055749;28;20104;-73
2022/11/02 10:40:36;;;;;;;8.63;1.83;;;;;;;15.09;100.00;99594.59;5060260;28;20029;-74
2022/11/02 10:43:29;;;;;;;9.02;1.58;;;;;;;15.45;100.00;99581.47;5065313;28;20032;-73
2022/11/02 10:46:12;;;;;;;7.72;1.48;;;;;;;16.48;100.00;99574.97;5064053;28;20033;-74
2022/11/02 10:49:22;;;;;;;7.00;1.15;;;;;;;17.86;100.00;99581.94;5066322;28;20036;-73
2022/11/02 10:51:49;;;;;;;8.80;1.00;;;;;;;18.37;97.59;99583.31;5045810;28;20045;-73
2022/11/02 10:54:15;;;;;;;7.07;1.45;;;;;;;19.24;85.80;99571.66;5040020;28;20037;-69
2022/11/02 10:56:42;;;;;;;7.88;1.63;;;;;;;19.87;81.65;99568.03;5042686;28;20044;-74
2022/11/02 10:59:14;;;;;;;5.75;0.90;;;;;;;20.47;72.48;99574.88;5044729;28;20041;-73
2022/11/02 11:02:03;;;;;;;11.07;1.52;;;;;;;19.89;71.77;99565.88;5043687;28;20024;-72
2022/11/02 11:04:30;;;;;;;4.82;1.13;;;;;;;19.55;75.93;99580.53;5039012;28;20082;-72
2022/11/02 11:07:02;;;;;;;9.88;3.97;;;;;;;19.49;73.32;99580.44;5037950;28;20047;-75
2022/11/02 11:09:33;;;;;;;4.72;1.20;;;;;;;19.59;71.60;99573.47;5046224;28;20025;-74
2022/11/02 11:12:01;;;;;;;8.90;1.15;;;;;;;18.74;74.03;99555.69;5051172;28;20020;-76
2022/11/02 11:14:29;;;;;;;10.55;1.50;;;;;;;18.73;75.12;99554.88;5044441;28;20033;-72
2022/11/02 11:17:00;;;;;;;8.68;1.35;;;;;;;17.32;83.46;99565.34;5048167;28;20044;-74
2022/11/02 11:19:28;;;;;;;7.28;1.10;;;;;;;17.88;75.26;99574.34;5041109;28;20029;-75
2022/11/02 11:21:54;;;;;;;7.32;1.17;;;;;;;18.98;71.24;99567.53;5051146;28;20070;-75
2022/11/02 11:24:30;;;;;;;7.63;1.25;;;;;;;19.00;69.25;99577.16;5045833;28;20486;-74
2022/11/02 11:27:01;;;;;;;8.68;1.10;;;;;;;19.81;64.23;99565.44;5038120;28;20135;-74
2022/11/02 11:29:33;;;;;;;5.95;1.15;;;;;;;21.36;58.72;99549.25;5042433;28;20036;-75
2022/11/02 11:32:01;;;;;;;6.63;1.10;;;;;;;21.96;56.49;99546.66;5039113;28;20028;-75
2022/11/02 11:34:30;;;;;;;8.37;1.17;;;;;;;21.40;55.72;99555.91;5043891;28;20451;-75
2022/11/02 11:37:11;;;;;;;6.93;1.30;;;;;;;21.27;55.93;99555.44;5040186;28;20650;-75
2022/11/02 11:39:39;;;;;;;8.80;1.23;;;;;;;21.33;54.95;99558.03;5036190;28;20072;-73
2022/11/02 11:42:18;;;;;;;7.22;1.30;;;;;;;21.84;54.37;99558.66;5046018;28;20093;-74
2022/11/02 11:44:55;;;;;;;7.28;1.00;;;;;;;22.40;51.21;99546.53;5044804;28;20398;-72
2022/11/02 11:47:27;;;;;;;10.45;1.63;;;;;;;22.61;50.88;99550.28;5042855;28;20176;-74
2022/11/02 11:49:54;;;;;;;4.88;1.15;;;;;;;23.48;49.25;99557.19;5044156;28;20024;-75
2022/11/02 11:52:26;;;;;;;3.58;0.90;;;;;;;23.79;47.91;99560.09;5046325;28;20037;-71
2022/11/02 11:54:54;;;;;;;4.35;1.20;;;;;;;23.00;50.33;99552.78;5042553;28;20029;-75